Bruneau, Idaho
Current Conditions -  °F | °C
As of 3:58 AM on Friday 28 Nov 2014 (Local Time) from KMUO Reporting Station
Scattered Clouds Scattered Clouds  
Wind Chill: 32°   Ceiling: Unl
Heat Index: 38°   Visibility: 10mi
Dew Point: 38°   Wind: 8mph
Humidity: 100%   Direction: 120°ESE
Pressure: 29.92"   Gusts: NA
Location:  42.88°N, 115.8°W
Report Text: KMUO 281058Z AUTO 12007KT 10SM SCT200 04/04 A2992 RMK AO2 SLP135 T00350035
Loading
Personal Weather Stations






























Interactive Weather Map New forecast layout! Learn more

10-Day Weather Forecast

Advertisements
Track Severe Weather on mobile